sensor_id;sensor_type;location;lat;lon;timestamp;pressure;altitude;pressure_sealevel;temperature;humidity
50650;BME280;36621;60.058;30.346;2023-07-20T00:04:00;99546.50;;;18.66;61.89
50650;BME280;36621;60.058;30.346;2023-07-20T00:11:35;99593.09;;;18.96;61.89
50650;BME280;36621;60.058;30.346;2023-07-20T00:19:08;99549.38;;;18.69;62.24
50650;BME280;36621;60.058;30.346;2023-07-20T00:26:41;99553.81;;;18.74;61.95
50650;BME280;36621;60.058;30.346;2023-07-20T00:34:14;99588.00;;;18.98;62.27
50650;BME280;36621;60.058;30.346;2023-07-20T00:41:46;99549.44;;;18.73;62.18
50650;BME280;36621;60.058;30.346;2023-07-20T00:49:19;99565.69;;;18.90;62.29
50650;BME280;36621;60.058;30.346;2023-07-20T00:56:53;99596.03;;;19.03;61.62
50650;BME280;36621;60.058;30.346;2023-07-20T01:04:26;99568.22;;;18.96;61.26
50650;BME280;36621;60.058;30.346;2023-07-20T01:12:04;99564.00;;;19.02;60.53
50650;BME280;36621;60.058;30.346;2023-07-20T01:19:38;99534.91;;;18.76;60.89
50650;BME280;36621;60.058;30.346;2023-07-20T01:27:44;99588.97;;;19.21;60.46
50650;BME280;36621;60.058;30.346;2023-07-20T01:35:28;99595.94;;;19.15;60.33
50650;BME280;36621;60.058;30.346;2023-07-20T01:43:02;99501.84;;;18.48;59.71
50650;BME280;36621;60.058;30.346;2023-07-20T01:50:35;99601.47;;;19.15;59.62
50650;BME280;36621;60.058;30.346;2023-07-20T01:58:07;99594.41;;;19.18;58.76
50650;BME280;36621;60.058;30.346;2023-07-20T02:05:42;99598.97;;;19.26;58.69
50650;BME280;36621;60.058;30.346;2023-07-20T02:13:15;99558.13;;;18.87;58.26
50650;BME280;36621;60.058;30.346;2023-07-20T02:20:48;99605.41;;;19.14;58.50
50650;BME280;36621;60.058;30.346;2023-07-20T02:28:20;99583.81;;;19.04;58.79
50650;BME280;36621;60.058;30.346;2023-07-20T02:35:53;99558.22;;;18.91;58.73
50650;BME280;36621;60.058;30.346;2023-07-20T02:43:25;99599.59;;;19.19;59.17
50650;BME280;36621;60.058;30.346;2023-07-20T03:08:22;99608.66;;;19.87;57.95
50650;BME280;36621;60.058;30.346;2023-07-20T03:16:18;99492.81;;;18.99;57.38
50650;BME280;36621;60.058;30.346;2023-07-20T03:24:13;99509.41;;;18.99;57.59
50650;BME280;36621;60.058;30.346;2023-07-20T03:31:46;99590.97;;;19.56;57.86
50650;BME280;36621;60.058;30.346;2023-07-20T03:39:49;99400.72;;;18.63;57.02
50650;BME280;36621;60.058;30.346;2023-07-20T03:48:08;99609.91;;;20.48;55.63
50650;BME280;36621;60.058;30.346;2023-07-20T03:55:44;99600.97;;;19.97;56.83
50650;BME280;36621;60.058;30.346;2023-07-20T04:03:19;99617.13;;;20.14;56.73
50650;BME280;36621;60.058;30.346;2023-07-20T04:10:54;99619.81;;;20.50;56.29
50650;BME280;36621;60.058;30.346;2023-07-20T04:18:27;99609.84;;;20.88;55.87
50650;BME280;36621;60.058;30.346;2023-07-20T04:26:01;99610.25;;;21.13;54.90
50650;BME280;36621;60.058;30.346;2023-07-20T04:33:34;99555.50;;;20.63;54.92
50650;BME280;36621;60.058;30.346;2023-07-20T04:49:50;99588.44;;;21.38;54.37
50650;BME280;36621;60.058;30.346;2023-07-20T04:58:02;99617.53;;;22.35;52.38
50650;BME280;36621;60.058;30.346;2023-07-20T05:05:59;99620.00;;;22.41;51.60
50650;BME280;36621;60.058;30.346;2023-07-20T05:13:34;99594.63;;;22.15;50.90
50650;BME280;36621;60.058;30.346;2023-07-20T05:21:12;99553.31;;;22.48;50.31
50650;BME280;36621;60.058;30.346;2023-07-20T05:29:03;99606.38;;;23.11;49.85
50650;BME280;36621;60.058;30.346;2023-07-20T05:36:49;99541.03;;;22.97;49.23
50650;BME280;36621;60.058;30.346;2023-07-20T12:15:43;99655.75;;;21.08;44.93
50650;BME280;36621;60.058;30.346;2023-07-20T12:23:15;99666.84;;;21.31;41.92
50650;BME280;36621;60.058;30.346;2023-07-20T12:30:49;99564.97;;;20.62;43.80
50650;BME280;36621;60.058;30.346;2023-07-20T12:47:15;99666.97;;;21.39;43.45
50650;BME280;36621;60.058;30.346;2023-07-20T12:54:49;99687.94;;;21.36;43.92
50650;BME280;36621;60.058;30.346;2023-07-20T13:11:10;99734.06;;;21.64;40.73
50650;BME280;36621;60.058;30.346;2023-07-20T13:18:55;99602.75;;;20.90;40.93
50650;BME280;36621;60.058;30.346;2023-07-20T13:27:15;99505.28;;;20.22;40.74
50650;BME280;36621;60.058;30.346;2023-07-20T13:36:07;99539.50;;;20.34;41.53
50650;BME280;36621;60.058;30.346;2023-07-20T13:43:46;99735.09;;;21.56;43.74
50650;BME280;36621;60.058;30.346;2023-07-20T13:51:22;99611.06;;;20.67;42.36
50650;BME280;36621;60.058;30.346;2023-07-20T13:59:10;99728.78;;;21.59;41.58
50650;BME280;36621;60.058;30.346;2023-07-20T14:06:42;99732.81;;;21.61;44.05
50650;BME280;36621;60.058;30.346;2023-07-20T14:14:24;99657.38;;;21.09;44.08
50650;BME280;36621;60.058;30.346;2023-07-20T14:21:58;99613.31;;;20.61;43.80
50650;BME280;36621;60.058;30.346;2023-07-20T14:29:36;99605.19;;;20.72;44.37
50650;BME280;36621;60.058;30.346;2023-07-20T14:37:12;99737.81;;;21.52;42.96
50650;BME280;36621;60.058;30.346;2023-07-20T14:44:48;99705.16;;;21.22;42.99
50650;BME280;36621;60.058;30.346;2023-07-20T14:52:20;99641.81;;;20.62;41.78
50650;BME280;36621;60.058;30.346;2023-07-20T15:00:00;99747.41;;;21.35;42.57
50650;BME280;36621;60.058;30.346;2023-07-20T15:07:43;99657.09;;;20.72;42.62
50650;BME280;36621;60.058;30.346;2023-07-20T15:15:18;99754.81;;;21.27;41.20
50650;BME280;36621;60.058;30.346;2023-07-20T15:22:54;99746.78;;;21.22;42.50
50650;BME280;36621;60.058;30.346;2023-07-20T15:30:36;99590.59;;;20.13;42.66
50650;BME280;36621;60.058;30.346;2023-07-20T15:38:12;99684.38;;;20.70;43.33
50650;BME280;36621;60.058;30.346;2023-07-20T15:45:49;99620.19;;;20.28;44.75
50650;BME280;36621;60.058;30.346;2023-07-20T16:01:57;99722.84;;;20.71;46.63
50650;BME280;36621;60.058;30.346;2023-07-20T16:09:30;99685.34;;;20.38;46.86
50650;BME280;36621;60.058;30.346;2023-07-20T16:17:06;99766.94;;;20.96;47.25
50650;BME280;36621;60.058;30.346;2023-07-20T16:24:45;99781.06;;;21.10;47.06
50650;BME280;36621;60.058;30.346;2023-07-20T16:32:25;99710.13;;;20.51;47.92
50650;BME280;36621;60.058;30.346;2023-07-20T16:48:50;99710.94;;;20.51;48.63
50650;BME280;36621;60.058;30.346;2023-07-20T16:56:40;99704.94;;;20.49;48.07
50650;BME280;36621;60.058;30.346;2023-07-20T17:04:19;99771.69;;;20.76;48.61
50650;BME280;36621;60.058;30.346;2023-07-20T17:11:57;99705.88;;;20.57;49.34
50650;BME280;36621;60.058;30.346;2023-07-20T17:28:32;99771.59;;;20.92;49.30
50650;BME280;36621;60.058;30.346;2023-07-20T17:36:27;99741.09;;;20.72;49.41
50650;BME280;36621;60.058;30.346;2023-07-20T17:44:00;99769.56;;;20.69;49.57
50650;BME280;36621;60.058;30.346;2023-07-20T17:52:17;99772.84;;;20.75;48.55
50650;BME280;36621;60.058;30.346;2023-07-20T18:09:46;99773.88;;;20.31;48.33
50650;BME280;36621;60.058;30.346;2023-07-20T18:17:36;99748.84;;;19.76;49.49
50650;BME280;36621;60.058;30.346;2023-07-20T18:25:09;99757.84;;;19.73;49.84
50650;BME280;36621;60.058;30.346;2023-07-20T18:32:44;99764.94;;;19.54;50.80
50650;BME280;36621;60.058;30.346;2023-07-20T18:40:20;99763.84;;;19.43;51.51
50650;BME280;36621;60.058;30.346;2023-07-20T18:47:59;99738.63;;;19.16;52.14
50650;BME280;36621;60.058;30.346;2023-07-20T18:55:39;99745.28;;;18.99;52.11
50650;BME280;36621;60.058;30.346;2023-07-20T19:03:22;99769.38;;;18.99;52.61
50650;BME280;36621;60.058;30.346;2023-07-20T19:10:59;99774.13;;;18.98;52.54
50650;BME280;36621;60.058;30.346;2023-07-20T19:18:35;99767.69;;;18.82;52.98
50650;BME280;36621;60.058;30.346;2023-07-20T19:26:10;99775.19;;;18.81;52.98
50650;BME280;36621;60.058;30.346;2023-07-20T19:33:43;99761.41;;;18.69;53.16
50650;BME280;36621;60.058;30.346;2023-07-20T19:41:17;99763.03;;;18.70;53.67
50650;BME280;36621;60.058;30.346;2023-07-20T19:48:49;99776.06;;;18.69;53.55
50650;BME280;36621;60.058;30.346;2023-07-20T19:56:24;99742.63;;;18.46;53.82
50650;BME280;36621;60.058;30.346;2023-07-20T20:03:56;99754.38;;;18.43;54.01
50650;BME280;36621;60.058;30.346;2023-07-20T20:11:29;99778.03;;;18.56;54.03
50650;BME280;36621;60.058;30.346;2023-07-20T20:19:02;99734.53;;;18.13;54.99
50650;BME280;36621;60.058;30.346;2023-07-20T20:26:35;99770.47;;;18.41;55.90
50650;BME280;36621;60.058;30.346;2023-07-20T20:34:08;99754.41;;;18.18;56.19
50650;BME280;36621;60.058;30.346;2023-07-20T20:41:41;99735.88;;;18.19;56.74
50650;BME280;36621;60.058;30.346;2023-07-20T20:49:16;99766.09;;;18.40;57.27
50650;BME280;36621;60.058;30.346;2023-07-20T20:56:50;99737.59;;;18.36;56.98
50650;BME280;36621;60.058;30.346;2023-07-20T21:04:23;99781.72;;;18.61;56.90
50650;BME280;36621;60.058;30.346;2023-07-20T21:12:00;99790.25;;;18.55;56.92
50650;BME280;36621;60.058;30.346;2023-07-20T21:19:32;99797.19;;;18.49;56.84
50650;BME280;36621;60.058;30.346;2023-07-20T21:27:05;99783.25;;;18.46;57.09
50650;BME280;36621;60.058;30.346;2023-07-20T21:34:39;99741.66;;;18.01;57.58
50650;BME280;36621;60.058;30.346;2023-07-20T21:42:13;99743.13;;;17.86;57.99
50650;BME280;36621;60.058;30.346;2023-07-20T21:49:46;99809.88;;;18.01;58.52
50650;BME280;36621;60.058;30.346;2023-07-20T21:57:19;99804.81;;;17.91;59.46
50650;BME280;36621;60.058;30.346;2023-07-20T22:04:51;99696.63;;;17.14;59.61
50650;BME280;36621;60.058;30.346;2023-07-20T22:12:24;99758.06;;;17.48;60.06
50650;BME280;36621;60.058;30.346;2023-07-20T22:19:56;99786.72;;;17.68;60.37
50650;BME280;36621;60.058;30.346;2023-07-20T22:27:29;99762.22;;;17.42;60.85
50650;BME280;36621;60.058;30.346;2023-07-20T22:35:02;99749.66;;;17.32;61.34
50650;BME280;36621;60.058;30.346;2023-07-20T22:42:36;99785.00;;;17.64;61.21
50650;BME280;36621;60.058;30.346;2023-07-20T22:50:09;99781.31;;;17.60;61.52
50650;BME280;36621;60.058;30.346;2023-07-20T22:57:42;99655.72;;;16.92;61.42
50650;BME280;36621;60.058;30.346;2023-07-20T23:05:14;99727.38;;;17.38;61.46
50650;BME280;36621;60.058;30.346;2023-07-20T23:12:48;99782.59;;;17.75;61.52
50650;BME280;36621;60.058;30.346;2023-07-20T23:20:21;99773.50;;;17.74;61.31
50650;BME280;36621;60.058;30.346;2023-07-20T23:27:55;99772.59;;;17.70;61.50
50650;BME280;36621;60.058;30.346;2023-07-20T23:35:27;99768.69;;;17.71;61.67
50650;BME280;36621;60.058;30.346;2023-07-20T23:43:00;99657.13;;;17.10;61.41
50650;BME280;36621;60.058;30.346;2023-07-20T23:50:33;99647.78;;;17.02;61.44
50650;BME280;36621;60.058;30.346;2023-07-20T23:58:07;99758.91;;;17.86;61.38
